KNTD/NTD METAR and TAF weather

Enter ICAO airport designator
Station Type Date Time Source
KNTD METAR 2019/02/22 22:57 UTC NOAA

KNTD 222257Z 28010KT 10SM FEW065 SCT280 14/01 A3006 RMK AO2 SLP181 T01390011 $


Station Type Date Time Source
KNTD Decoded METAR 2019/02/22 22:57 UTC NOAA

NAWCWPNS POINT MUGU, CA, CA, United States (KNTD) 34-07N 119-07W 2M
Feb 22, 2019 - 05:57 PM EST / 2019.02.22 2257 UTC
Wind: from the W (280 degrees) at 12 MPH (10 KT):0
Visibility: 10 mile(s):0
Sky conditions: partly cloudy
Temperature: 57.0 F (13.9 C)
Dew Point: 34.0 F (1.1 C)
Relative Humidity: 41%
Pressure (altimeter): 30.06 in. Hg (1017 hPa)
ob: KNTD 222257Z 28010KT 10SM FEW065 SCT280 14/01 A3006 RMK AO2 SLP181 T01390011
cycle: 23

Station Type Date Time Source
KNTD TAF 2019/02/22 23:03 UTC NOAA

TAF KNTD 2223/2323 28011KT 9999 FEW065 SCT280 QNH3003INS
FM230200 VRB05KT 9999 SKC QNH3003INS
TEMPO 2314/2319 09009KT SCT280
BECMG 2319/2321 21011KT 9999 FEW070 SCT280 QNH3021INS AUTOMATED SENSOR METWATCH 2307 TIL 2314 T03/2314Z T16/2322Z FS30101


Example: see airport list